sensor_id;sensor_type;location;lat;lon;timestamp;P1;durP1;ratioP1;P2;durP2;ratioP2
53890;SDS011;41337;51.400;-2.342;2023-09-18T00:09:21;62.25;;;34.75;;
53890;SDS011;41337;51.400;-2.342;2023-09-18T00:19:52;81.55;;;38.05;;
53890;SDS011;41337;51.400;-2.342;2023-09-18T00:30:04;137.00;;;43.92;;
53890;SDS011;41337;51.400;-2.342;2023-09-18T00:40:18;135.95;;;46.20;;
53890;SDS011;41337;51.400;-2.342;2023-09-18T00:50:25;149.88;;;45.88;;
53890;SDS011;41337;51.400;-2.342;2023-09-18T02:44:36;52.35;;;27.05;;
53890;SDS011;41337;51.400;-2.342;2023-09-18T02:55:01;46.25;;;24.95;;
53890;SDS011;41337;51.400;-2.342;2023-09-18T03:17:16;32.40;;;19.75;;
53890;SDS011;41337;51.400;-2.342;2023-09-18T03:22:24;43.88;;;21.27;;
53890;SDS011;41337;51.400;-2.342;2023-09-18T03:27:27;27.75;;;19.55;;
53890;SDS011;41337;51.400;-2.342;2023-09-18T04:21:39;19.05;;;13.88;;
53890;SDS011;41337;51.400;-2.342;2023-09-18T04:26:43;21.07;;;14.83;;
53890;SDS011;41337;51.400;-2.342;2023-09-18T04:37:02;19.17;;;14.23;;
53890;SDS011;41337;51.400;-2.342;2023-09-18T04:42:03;19.48;;;13.13;;
53890;SDS011;41337;51.400;-2.342;2023-09-18T04:47:04;20.52;;;13.65;;
53890;SDS011;41337;51.400;-2.342;2023-09-18T04:57:10;12.05;;;8.80;;
53890;SDS011;41337;51.400;-2.342;2023-09-18T05:23:38;14.32;;;11.27;;
53890;SDS011;41337;51.400;-2.342;2023-09-18T06:10:39;15.85;;;12.10;;
53890;SDS011;41337;51.400;-2.342;2023-09-18T06:15:44;19.25;;;12.70;;
53890;SDS011;41337;51.400;-2.342;2023-09-18T06:21:10;19.45;;;11.65;;
53890;SDS011;41337;51.400;-2.342;2023-09-18T06:42:20;15.00;;;11.60;;
53890;SDS011;41337;51.400;-2.342;2023-09-18T07:04:38;13.35;;;9.98;;
53890;SDS011;41337;51.400;-2.342;2023-09-18T07:09:55;13.23;;;8.55;;
53890;SDS011;41337;51.400;-2.342;2023-09-18T07:15:13;36.22;;;10.30;;
53890;SDS011;41337;51.400;-2.342;2023-09-18T07:31:38;19.27;;;10.15;;
53890;SDS011;41337;51.400;-2.342;2023-09-18T07:37:24;16.45;;;10.00;;
53890;SDS011;41337;51.400;-2.342;2023-09-18T07:42:25;17.77;;;11.18;;
53890;SDS011;41337;51.400;-2.342;2023-09-18T07:47:33;20.15;;;11.93;;
53890;SDS011;41337;51.400;-2.342;2023-09-18T07:52:45;18.23;;;11.25;;
53890;SDS011;41337;51.400;-2.342;2023-09-18T07:58:35;14.93;;;10.45;;
53890;SDS011;41337;51.400;-2.342;2023-09-18T08:04:08;13.02;;;10.05;;
53890;SDS011;41337;51.400;-2.342;2023-09-18T08:33:32;15.57;;;8.93;;
53890;SDS011;41337;51.400;-2.342;2023-09-18T08:38:38;17.52;;;10.65;;
53890;SDS011;41337;51.400;-2.342;2023-09-18T08:43:48;23.08;;;10.38;;
53890;SDS011;41337;51.400;-2.342;2023-09-18T08:49:33;14.32;;;10.55;;
53890;SDS011;41337;51.400;-2.342;2023-09-18T09:06:15;20.92;;;11.82;;
53890;SDS011;41337;51.400;-2.342;2023-09-18T09:11:49;17.15;;;9.90;;
53890;SDS011;41337;51.400;-2.342;2023-09-18T09:17:21;23.92;;;11.02;;
53890;SDS011;41337;51.400;-2.342;2023-09-18T09:34:26;8.38;;;3.50;;
53890;SDS011;41337;51.400;-2.342;2023-09-18T09:52:18;6.90;;;2.00;;
53890;SDS011;41337;51.400;-2.342;2023-09-18T09:57:27;5.13;;;1.67;;
53890;SDS011;41337;51.400;-2.342;2023-09-18T10:03:23;1.92;;;0.95;;
53890;SDS011;41337;51.400;-2.342;2023-09-18T10:31:17;1.75;;;0.90;;
53890;SDS011;41337;51.400;-2.342;2023-09-18T10:36:40;3.60;;;0.93;;
53890;SDS011;41337;51.400;-2.342;2023-09-18T10:41:52;2.53;;;0.77;;
53890;SDS011;41337;51.400;-2.342;2023-09-18T10:46:58;1.20;;;0.80;;
53890;SDS011;41337;51.400;-2.342;2023-09-18T10:52:10;1.83;;;0.88;;
53890;SDS011;41337;51.400;-2.342;2023-09-18T10:57:13;1.25;;;1.15;;
53890;SDS011;41337;51.400;-2.342;2023-09-18T11:02:16;2.40;;;1.90;;
53890;SDS011;41337;51.400;-2.342;2023-09-18T11:07:23;5.10;;;3.22;;
53890;SDS011;41337;51.400;-2.342;2023-09-18T11:17:55;4.03;;;3.63;;
53890;SDS011;41337;51.400;-2.342;2023-09-18T11:23:10;6.72;;;3.67;;
53890;SDS011;41337;51.400;-2.342;2023-09-18T11:28:24;4.43;;;3.40;;
53890;SDS011;41337;51.400;-2.342;2023-09-18T11:38:54;3.83;;;3.53;;
53890;SDS011;41337;51.400;-2.342;2023-09-18T11:49:23;5.25;;;2.33;;
53890;SDS011;41337;51.400;-2.342;2023-09-18T11:54:32;4.05;;;1.90;;
53890;SDS011;41337;51.400;-2.342;2023-09-18T11:59:35;3.00;;;1.42;;
53890;SDS011;41337;51.400;-2.342;2023-09-18T12:04:50;4.72;;;1.30;;
53890;SDS011;41337;51.400;-2.342;2023-09-18T12:09:55;5.35;;;1.25;;
53890;SDS011;41337;51.400;-2.342;2023-09-18T12:14:56;3.97;;;1.20;;
53890;SDS011;41337;51.400;-2.342;2023-09-18T12:20:00;3.08;;;1.20;;
53890;SDS011;41337;51.400;-2.342;2023-09-18T12:25:13;4.07;;;0.90;;
53890;SDS011;41337;51.400;-2.342;2023-09-18T12:30:25;1.45;;;0.80;;
53890;SDS011;41337;51.400;-2.342;2023-09-18T12:35:49;2.55;;;0.73;;
53890;SDS011;41337;51.400;-2.342;2023-09-18T12:40:51;1.40;;;0.70;;
53890;SDS011;41337;51.400;-2.342;2023-09-18T12:45:55;2.17;;;0.88;;
53890;SDS011;41337;51.400;-2.342;2023-09-18T12:51:04;2.88;;;0.80;;
53890;SDS011;41337;51.400;-2.342;2023-09-18T12:56:09;2.72;;;1.05;;
53890;SDS011;41337;51.400;-2.342;2023-09-18T13:01:12;1.90;;;0.70;;
53890;SDS011;41337;51.400;-2.342;2023-09-18T13:06:16;5.68;;;0.73;;
53890;SDS011;41337;51.400;-2.342;2023-09-18T13:11:19;2.65;;;0.75;;
53890;SDS011;41337;51.400;-2.342;2023-09-18T13:16:22;4.18;;;0.50;;
53890;SDS011;41337;51.400;-2.342;2023-09-18T13:21:28;0.57;;;0.20;;
53890;SDS011;41337;51.400;-2.342;2023-09-18T13:26:30;0.80;;;0.40;;
53890;SDS011;41337;51.400;-2.342;2023-09-18T13:31:31;2.30;;;0.30;;
53890;SDS011;41337;51.400;-2.342;2023-09-18T13:36:33;2.08;;;0.30;;
53890;SDS011;41337;51.400;-2.342;2023-09-18T13:41:54;2.28;;;0.30;;
53890;SDS011;41337;51.400;-2.342;2023-09-18T13:46:54;2.25;;;0.57;;
53890;SDS011;41337;51.400;-2.342;2023-09-18T13:51:55;2.13;;;0.50;;
53890;SDS011;41337;51.400;-2.342;2023-09-18T13:56:57;3.17;;;0.50;;
53890;SDS011;41337;51.400;-2.342;2023-09-18T14:01:59;2.83;;;0.60;;
53890;SDS011;41337;51.400;-2.342;2023-09-18T14:07:00;3.40;;;0.70;;
53890;SDS011;41337;51.400;-2.342;2023-09-18T14:12:02;2.70;;;1.00;;
53890;SDS011;41337;51.400;-2.342;2023-09-18T14:17:08;9.38;;;1.08;;
53890;SDS011;41337;51.400;-2.342;2023-09-18T14:22:21;6.93;;;1.45;;
53890;SDS011;41337;51.400;-2.342;2023-09-18T14:27:25;5.57;;;1.20;;
53890;SDS011;41337;51.400;-2.342;2023-09-18T14:32:26;4.88;;;1.00;;
53890;SDS011;41337;51.400;-2.342;2023-09-18T14:37:27;5.45;;;1.42;;
53890;SDS011;41337;51.400;-2.342;2023-09-18T14:42:30;8.80;;;1.20;;
53890;SDS011;41337;51.400;-2.342;2023-09-18T14:47:31;7.25;;;1.27;;
53890;SDS011;41337;51.400;-2.342;2023-09-18T14:52:31;7.55;;;1.10;;
53890;SDS011;41337;51.400;-2.342;2023-09-18T14:57:32;6.05;;;1.05;;
53890;SDS011;41337;51.400;-2.342;2023-09-18T15:02:34;5.20;;;0.85;;
53890;SDS011;41337;51.400;-2.342;2023-09-18T15:07:35;3.75;;;1.02;;
53890;SDS011;41337;51.400;-2.342;2023-09-18T15:12:36;6.10;;;1.27;;
53890;SDS011;41337;51.400;-2.342;2023-09-18T15:17:37;6.63;;;1.30;;
53890;SDS011;41337;51.400;-2.342;2023-09-18T15:22:44;6.20;;;1.40;;
53890;SDS011;41337;51.400;-2.342;2023-09-18T15:27:45;5.70;;;1.05;;
53890;SDS011;41337;51.400;-2.342;2023-09-18T15:37:56;7.93;;;1.55;;
53890;SDS011;41337;51.400;-2.342;2023-09-18T15:42:56;5.65;;;1.08;;
53890;SDS011;41337;51.400;-2.342;2023-09-18T15:48:06;8.13;;;1.50;;
53890;SDS011;41337;51.400;-2.342;2023-09-18T15:53:08;8.90;;;1.60;;
53890;SDS011;41337;51.400;-2.342;2023-09-18T15:58:09;5.18;;;0.90;;
53890;SDS011;41337;51.400;-2.342;2023-09-18T16:03:10;6.28;;;1.52;;
53890;SDS011;41337;51.400;-2.342;2023-09-18T16:08:11;6.90;;;1.30;;
53890;SDS011;41337;51.400;-2.342;2023-09-18T16:13:21;4.68;;;0.95;;
53890;SDS011;41337;51.400;-2.342;2023-09-18T16:28:53;6.88;;;1.50;;
53890;SDS011;41337;51.400;-2.342;2023-09-18T16:33:56;7.95;;;1.50;;
53890;SDS011;41337;51.400;-2.342;2023-09-18T16:38:56;5.47;;;1.15;;
53890;SDS011;41337;51.400;-2.342;2023-09-18T16:43:58;5.80;;;1.50;;
53890;SDS011;41337;51.400;-2.342;2023-09-18T16:49:00;9.25;;;1.63;;
53890;SDS011;41337;51.400;-2.342;2023-09-18T17:04:43;5.00;;;1.38;;
53890;SDS011;41337;51.400;-2.342;2023-09-18T17:10:20;5.07;;;1.73;;
53890;SDS011;41337;51.400;-2.342;2023-09-18T17:15:22;7.28;;;1.52;;
53890;SDS011;41337;51.400;-2.342;2023-09-18T17:20:22;7.45;;;1.75;;
53890;SDS011;41337;51.400;-2.342;2023-09-18T17:25:26;6.68;;;1.55;;
53890;SDS011;41337;51.400;-2.342;2023-09-18T17:30:27;14.57;;;2.60;;
53890;SDS011;41337;51.400;-2.342;2023-09-18T17:35:49;12.02;;;2.00;;
53890;SDS011;41337;51.400;-2.342;2023-09-18T17:40:51;17.58;;;2.40;;
53890;SDS011;41337;51.400;-2.342;2023-09-18T17:45:54;9.15;;;1.70;;
53890;SDS011;41337;51.400;-2.342;2023-09-18T17:50:57;9.95;;;1.67;;
53890;SDS011;41337;51.400;-2.342;2023-09-18T17:56:04;12.35;;;2.50;;
53890;SDS011;41337;51.400;-2.342;2023-09-18T18:01:05;9.95;;;1.85;;
53890;SDS011;41337;51.400;-2.342;2023-09-18T18:06:11;8.23;;;1.77;;
53890;SDS011;41337;51.400;-2.342;2023-09-18T18:11:12;7.88;;;1.35;;
53890;SDS011;41337;51.400;-2.342;2023-09-18T18:16:13;10.27;;;1.70;;
53890;SDS011;41337;51.400;-2.342;2023-09-18T18:32:33;10.63;;;1.98;;
53890;SDS011;41337;51.400;-2.342;2023-09-18T18:37:35;7.75;;;1.83;;
53890;SDS011;41337;51.400;-2.342;2023-09-18T18:42:37;6.20;;;1.55;;
53890;SDS011;41337;51.400;-2.342;2023-09-18T18:47:38;8.07;;;1.63;;
53890;SDS011;41337;51.400;-2.342;2023-09-18T18:52:42;13.70;;;2.22;;
53890;SDS011;41337;51.400;-2.342;2023-09-18T18:57:45;12.70;;;1.85;;
53890;SDS011;41337;51.400;-2.342;2023-09-18T19:03:15;8.98;;;1.77;;
53890;SDS011;41337;51.400;-2.342;2023-09-18T19:08:16;16.23;;;2.42;;
53890;SDS011;41337;51.400;-2.342;2023-09-18T19:13:17;15.50;;;2.03;;
53890;SDS011;41337;51.400;-2.342;2023-09-18T19:18:50;10.13;;;2.22;;
53890;SDS011;41337;51.400;-2.342;2023-09-18T19:23:53;8.15;;;2.13;;
53890;SDS011;41337;51.400;-2.342;2023-09-18T19:29:01;13.43;;;1.48;;
53890;SDS011;41337;51.400;-2.342;2023-09-18T19:45:15;8.63;;;1.65;;
53890;SDS011;41337;51.400;-2.342;2023-09-18T19:50:17;7.63;;;2.20;;
53890;SDS011;41337;51.400;-2.342;2023-09-18T19:55:23;9.45;;;1.90;;
53890;SDS011;41337;51.400;-2.342;2023-09-18T20:00:42;9.52;;;1.42;;
53890;SDS011;41337;51.400;-2.342;2023-09-18T20:05:44;11.57;;;2.33;;
53890;SDS011;41337;51.400;-2.342;2023-09-18T20:10:52;9.30;;;1.53;;
53890;SDS011;41337;51.400;-2.342;2023-09-18T20:26:36;12.60;;;1.77;;
53890;SDS011;41337;51.400;-2.342;2023-09-18T20:31:37;13.70;;;2.47;;
53890;SDS011;41337;51.400;-2.342;2023-09-18T20:37:17;9.70;;;3.00;;
53890;SDS011;41337;51.400;-2.342;2023-09-18T20:42:19;15.77;;;2.47;;
53890;SDS011;41337;51.400;-2.342;2023-09-18T20:52:48;14.02;;;2.30;;
53890;SDS011;41337;51.400;-2.342;2023-09-18T20:57:50;8.05;;;1.90;;
53890;SDS011;41337;51.400;-2.342;2023-09-18T21:03:10;15.68;;;2.50;;
53890;SDS011;41337;51.400;-2.342;2023-09-18T21:08:18;11.57;;;2.28;;
53890;SDS011;41337;51.400;-2.342;2023-09-18T21:13:19;12.88;;;2.55;;
53890;SDS011;41337;51.400;-2.342;2023-09-18T21:18:20;20.45;;;3.50;;
53890;SDS011;41337;51.400;-2.342;2023-09-18T21:23:22;19.75;;;2.40;;
53890;SDS011;41337;51.400;-2.342;2023-09-18T21:28:24;19.73;;;2.50;;
53890;SDS011;41337;51.400;-2.342;2023-09-18T21:33:25;19.90;;;2.50;;
53890;SDS011;41337;51.400;-2.342;2023-09-18T21:44:22;10.30;;;2.35;;
53890;SDS011;41337;51.400;-2.342;2023-09-18T21:49:26;18.55;;;3.22;;
53890;SDS011;41337;51.400;-2.342;2023-09-18T22:00:53;14.25;;;2.92;;
53890;SDS011;41337;51.400;-2.342;2023-09-18T22:06:20;14.02;;;2.55;;
53890;SDS011;41337;51.400;-2.342;2023-09-18T22:16:52;19.13;;;3.30;;
53890;SDS011;41337;51.400;-2.342;2023-09-18T22:22:19;14.93;;;3.13;;
53890;SDS011;41337;51.400;-2.342;2023-09-18T22:33:46;20.55;;;2.97;;
53890;SDS011;41337;51.400;-2.342;2023-09-18T22:57:04;26.27;;;4.82;;
53890;SDS011;41337;51.400;-2.342;2023-09-18T23:19:04;23.73;;;3.55;;
53890;SDS011;41337;51.400;-2.342;2023-09-18T23:24:28;16.38;;;3.13;;
53890;SDS011;41337;51.400;-2.342;2023-09-18T23:29:47;25.10;;;3.80;;
53890;SDS011;41337;51.400;-2.342;2023-09-18T23:35:49;23.70;;;3.58;;
53890;SDS011;41337;51.400;-2.342;2023-09-18T23:41:08;18.77;;;2.88;;
53890;SDS011;41337;51.400;-2.342;2023-09-18T23:46:16;23.80;;;2.75;;
53890;SDS011;41337;51.400;-2.342;2023-09-18T23:51:47;14.93;;;3.13;;
53890;SDS011;41337;51.400;-2.342;2023-09-18T23:57:01;19.00;;;3.65;;
